Aérodrome :
LOGIN :

S'inscrire | Disclaimer

   EN    FR    IT 

 










Légende :    VFR   VFR Marginal   IFR   IFR Intensif   IFR Très Intensif
Visi : 
Plafond : 
>= 8 km
>= 3000ft
5 à 8 km
1000 à 3000 ft
1500m à 5 km
500 à 1000 ft
800 à 1500m
200 à 500 ft
< 800m
< 200 ft
Symboles :   Orages  Brouillard  Fortes neiges  Fortes précipitations  Vent > 20 kt
SIGMETs :   Divers  Orages  Givrage  Turbulence  Onde Orograph.  Cendres Volcan.







- Altitude de l'aérodrome : 466 ft


LHPA - Pápa

DERNIER METAR :
  • 270115Z 17006KT CAVOK 20/15 Q1012 NOSIG RMK BLU

METARs EXPIRÉS :
  • 270045Z 16004KT CAVOK 19/15 Q1012 NOSIG RMK BLU
  • 270015Z 16006KT CAVOK 19/16 Q1012 NOSIG RMK BLU
  • 262345Z 16006KT CAVOK 19/16 Q1012 NOSIG RMK BLU
  • 262315Z 17006KT CAVOK 20/16 Q1013 NOSIG RMK BLU
  • 262245Z 17006KT CAVOK 21/16 Q1013 NOSIG RMK BLU

TAF TAF LHPA
Valide du 27 à 00h jusqu'au 28 à 00h UTC


262315Z 2700/2724 15005KT CAVOK
TEMPO 2700/2705 6000 NSC
BECMG 2707/2710 18011KT
BECMG 2716/2719 16007KT
Pas de NOTAMs connus pour ce terrain.



MET'MAP, la Météo Aéronautique d'un coup d'oeil ! - Copyright ORBIFLY Décembre 2007 - Disclaimer

ORBIFLY MET'MAP TEAM :

Programmation & Développement : Alexandra Zaïnal
Conception & Développement : Baudouin d'Aumeries
Co-Programmation & Développement : Marc-Olivier Méhu
Soutien technique & logistique : Manuel Goepfert

Contact : metmap@orbifly.com




SOURCES & CREDITS :

   NOAA